sensor_id;sensor_type;location;lat;lon;timestamp;P1;durP1;ratioP1;P2;durP2;ratioP2
12601;SDS011;30282;16.436;99.370;2023-02-11T00:01:07;68.37;;;41.07;;
12601;SDS011;30282;16.436;99.370;2023-02-11T00:03:40;65.53;;;41.30;;
12601;SDS011;30282;16.436;99.370;2023-02-11T00:06:09;59.27;;;41.37;;
12601;SDS011;30282;16.436;99.370;2023-02-11T00:08:40;90.57;;;42.27;;
12601;SDS011;30282;16.436;99.370;2023-02-11T00:11:11;188.37;;;44.67;;
12601;SDS011;30282;16.436;99.370;2023-02-11T00:13:42;93.90;;;45.23;;
12601;SDS011;30282;16.436;99.370;2023-02-11T00:16:12;80.00;;;42.90;;
12601;SDS011;30282;16.436;99.370;2023-02-11T00:18:42;52.77;;;41.13;;
12601;SDS011;30282;16.436;99.370;2023-02-11T00:21:11;70.03;;;43.20;;
12601;SDS011;30282;16.436;99.370;2023-02-11T00:23:45;66.53;;;43.70;;
12601;SDS011;30282;16.436;99.370;2023-02-11T00:26:14;74.73;;;44.63;;
12601;SDS011;30282;16.436;99.370;2023-02-11T00:28:44;61.03;;;43.80;;
12601;SDS011;30282;16.436;99.370;2023-02-11T00:31:15;58.63;;;44.33;;
12601;SDS011;30282;16.436;99.370;2023-02-11T00:33:45;82.30;;;45.43;;
12601;SDS011;30282;16.436;99.370;2023-02-11T00:36:15;82.27;;;51.77;;
12601;SDS011;30282;16.436;99.370;2023-02-11T00:38:48;77.30;;;53.40;;
12601;SDS011;30282;16.436;99.370;2023-02-11T00:41:18;74.67;;;49.40;;
12601;SDS011;30282;16.436;99.370;2023-02-11T00:43:48;75.73;;;48.20;;
12601;SDS011;30282;16.436;99.370;2023-02-11T00:46:17;67.10;;;47.63;;
12601;SDS011;30282;16.436;99.370;2023-02-11T00:48:46;163.03;;;52.57;;
12601;SDS011;30282;16.436;99.370;2023-02-11T00:51:16;89.47;;;50.77;;
12601;SDS011;30282;16.436;99.370;2023-02-11T00:53:45;82.53;;;55.13;;
12601;SDS011;30282;16.436;99.370;2023-02-11T00:56:16;87.07;;;58.77;;
12601;SDS011;30282;16.436;99.370;2023-02-11T00:58:45;84.53;;;58.20;;
12601;SDS011;30282;16.436;99.370;2023-02-11T01:01:14;103.63;;;57.57;;
12601;SDS011;30282;16.436;99.370;2023-02-11T01:03:43;77.27;;;56.10;;
12601;SDS011;30282;16.436;99.370;2023-02-11T01:06:12;85.60;;;56.53;;
12601;SDS011;30282;16.436;99.370;2023-02-11T01:08:41;91.60;;;57.97;;
12601;SDS011;30282;16.436;99.370;2023-02-11T01:11:13;93.80;;;61.07;;
12601;SDS011;30282;16.436;99.370;2023-02-11T01:13:43;94.20;;;58.27;;
12601;SDS011;30282;16.436;99.370;2023-02-11T01:16:12;86.80;;;56.83;;
12601;SDS011;30282;16.436;99.370;2023-02-11T01:18:41;82.60;;;55.57;;
12601;SDS011;30282;16.436;99.370;2023-02-11T01:21:10;81.73;;;54.10;;
12601;SDS011;30282;16.436;99.370;2023-02-11T01:23:39;98.87;;;57.37;;
12601;SDS011;30282;16.436;99.370;2023-02-11T01:26:08;87.60;;;55.60;;
12601;SDS011;30282;16.436;99.370;2023-02-11T01:28:39;81.37;;;50.50;;
12601;SDS011;30282;16.436;99.370;2023-02-11T01:31:08;74.07;;;47.53;;
12601;SDS011;30282;16.436;99.370;2023-02-11T01:33:37;71.43;;;49.03;;
12601;SDS011;30282;16.436;99.370;2023-02-11T01:36:06;67.83;;;46.97;;
12601;SDS011;30282;16.436;99.370;2023-02-11T01:38:35;74.10;;;46.37;;
12601;SDS011;30282;16.436;99.370;2023-02-11T01:41:05;70.30;;;45.87;;
12601;SDS011;30282;16.436;99.370;2023-02-11T01:43:36;64.17;;;45.03;;
12601;SDS011;30282;16.436;99.370;2023-02-11T01:46:25;57.77;;;43.07;;
12601;SDS011;30282;16.436;99.370;2023-02-11T01:48:58;63.17;;;42.03;;
12601;SDS011;30282;16.436;99.370;2023-02-11T01:51:32;60.80;;;43.33;;
12601;SDS011;30282;16.436;99.370;2023-02-11T01:54:05;55.07;;;42.00;;
12601;SDS011;30282;16.436;99.370;2023-02-11T01:56:54;62.13;;;43.57;;
12601;SDS011;30282;16.436;99.370;2023-02-11T01:59:45;61.97;;;44.93;;
12601;SDS011;30282;16.436;99.370;2023-02-11T02:02:19;54.13;;;40.80;;
12601;SDS011;30282;16.436;99.370;2023-02-11T02:04:52;62.97;;;44.50;;
12601;SDS011;30282;16.436;99.370;2023-02-11T02:07:25;61.43;;;43.57;;
12601;SDS011;30282;16.436;99.370;2023-02-11T02:10:01;58.70;;;46.90;;
12601;SDS011;30282;16.436;99.370;2023-02-11T02:12:34;67.23;;;46.77;;
12601;SDS011;30282;16.436;99.370;2023-02-11T02:15:21;63.43;;;46.23;;
12601;SDS011;30282;16.436;99.370;2023-02-11T02:17:57;62.93;;;45.73;;
12601;SDS011;30282;16.436;99.370;2023-02-11T02:20:40;58.40;;;44.17;;
12601;SDS011;30282;16.436;99.370;2023-02-11T02:26:28;88.20;;;47.40;;
12601;SDS011;30282;16.436;99.370;2023-02-11T02:29:48;68.73;;;47.43;;
12601;SDS011;30282;16.436;99.370;2023-02-11T02:32:44;63.53;;;46.93;;
12601;SDS011;30282;16.436;99.370;2023-02-11T02:35:28;78.43;;;47.73;;
12601;SDS011;30282;16.436;99.370;2023-02-11T02:38:07;68.93;;;49.90;;
12601;SDS011;30282;16.436;99.370;2023-02-11T02:40:43;70.73;;;49.23;;
12601;SDS011;30282;16.436;99.370;2023-02-11T02:43:15;58.30;;;44.97;;
12601;SDS011;30282;16.436;99.370;2023-02-11T02:45:45;68.30;;;47.70;;
12601;SDS011;30282;16.436;99.370;2023-02-11T02:48:26;63.57;;;48.50;;
12601;SDS011;30282;16.436;99.370;2023-02-11T02:50:59;66.93;;;48.40;;
12601;SDS011;30282;16.436;99.370;2023-02-11T02:53:41;69.63;;;49.40;;
12601;SDS011;30282;16.436;99.370;2023-02-11T02:56:20;70.40;;;49.23;;
12601;SDS011;30282;16.436;99.370;2023-02-11T02:59:04;69.83;;;53.40;;
12601;SDS011;30282;16.436;99.370;2023-02-11T03:01:59;69.60;;;51.53;;
12601;SDS011;30282;16.436;99.370;2023-02-11T03:04:40;69.97;;;51.00;;
12601;SDS011;30282;16.436;99.370;2023-02-11T03:07:16;66.77;;;52.40;;
12601;SDS011;30282;16.436;99.370;2023-02-11T03:09:53;66.17;;;51.50;;
12601;SDS011;30282;16.436;99.370;2023-02-11T03:12:27;65.53;;;51.00;;
12601;SDS011;30282;16.436;99.370;2023-02-11T03:14:58;62.10;;;50.03;;
12601;SDS011;30282;16.436;99.370;2023-02-11T03:17:28;83.50;;;56.97;;
12601;SDS011;30282;16.436;99.370;2023-02-11T03:20:00;81.43;;;61.33;;
12601;SDS011;30282;16.436;99.370;2023-02-11T03:22:31;69.27;;;56.83;;
12601;SDS011;30282;16.436;99.370;2023-02-11T03:25:05;79.23;;;61.60;;
12601;SDS011;30282;16.436;99.370;2023-02-11T03:27:38;86.63;;;62.40;;
12601;SDS011;30282;16.436;99.370;2023-02-11T03:30:13;75.00;;;59.10;;
12601;SDS011;30282;16.436;99.370;2023-02-11T03:32:48;80.07;;;57.90;;
12601;SDS011;30282;16.436;99.370;2023-02-11T03:35:20;82.93;;;61.97;;
12601;SDS011;30282;16.436;99.370;2023-02-11T03:37:54;74.37;;;53.90;;
12601;SDS011;30282;16.436;99.370;2023-02-11T03:40:26;77.87;;;54.80;;
12601;SDS011;30282;16.436;99.370;2023-02-11T03:42:58;75.23;;;52.40;;
12601;SDS011;30282;16.436;99.370;2023-02-11T03:45:30;64.67;;;46.73;;
12601;SDS011;30282;16.436;99.370;2023-02-11T03:48:00;60.90;;;47.13;;
12601;SDS011;30282;16.436;99.370;2023-02-11T03:50:40;75.23;;;50.07;;
12601;SDS011;30282;16.436;99.370;2023-02-11T03:53:11;58.87;;;44.33;;
12601;SDS011;30282;16.436;99.370;2023-02-11T03:55:41;67.40;;;52.77;;
12601;SDS011;30282;16.436;99.370;2023-02-11T03:58:11;64.70;;;45.77;;
12601;SDS011;30282;16.436;99.370;2023-02-11T04:00:41;74.73;;;47.53;;
12601;SDS011;30282;16.436;99.370;2023-02-11T04:03:11;59.73;;;47.27;;
12601;SDS011;30282;16.436;99.370;2023-02-11T04:05:42;64.50;;;49.10;;
12601;SDS011;30282;16.436;99.370;2023-02-11T04:08:11;79.33;;;49.33;;
12601;SDS011;30282;16.436;99.370;2023-02-11T04:10:40;79.73;;;50.30;;
12601;SDS011;30282;16.436;99.370;2023-02-11T04:13:09;66.90;;;47.27;;
12601;SDS011;30282;16.436;99.370;2023-02-11T04:15:41;69.10;;;48.60;;
12601;SDS011;30282;16.436;99.370;2023-02-11T04:18:10;53.47;;;44.13;;
12601;SDS011;30282;16.436;99.370;2023-02-11T04:20:39;56.97;;;45.53;;
12601;SDS011;30282;16.436;99.370;2023-02-11T04:23:10;57.27;;;45.93;;
12601;SDS011;30282;16.436;99.370;2023-02-11T04:25:39;60.50;;;46.73;;
12601;SDS011;30282;16.436;99.370;2023-02-11T04:28:08;62.87;;;45.60;;
12601;SDS011;30282;16.436;99.370;2023-02-11T04:30:37;54.27;;;42.53;;
12601;SDS011;30282;16.436;99.370;2023-02-11T04:33:06;68.77;;;42.80;;
12601;SDS011;30282;16.436;99.370;2023-02-11T04:35:35;48.63;;;40.83;;
12601;SDS011;30282;16.436;99.370;2023-02-11T04:38:06;51.03;;;41.57;;
12601;SDS011;30282;16.436;99.370;2023-02-11T04:40:35;51.27;;;41.90;;
12601;SDS011;30282;16.436;99.370;2023-02-11T04:43:04;60.67;;;43.43;;
12601;SDS011;30282;16.436;99.370;2023-02-11T04:45:33;48.83;;;40.00;;
12601;SDS011;30282;16.436;99.370;2023-02-11T04:48:02;60.07;;;42.20;;
12601;SDS011;30282;16.436;99.370;2023-02-11T04:50:31;58.30;;;41.83;;
12601;SDS011;30282;16.436;99.370;2023-02-11T04:53:00;55.67;;;42.30;;
12601;SDS011;30282;16.436;99.370;2023-02-11T04:55:31;45.87;;;39.00;;
12601;SDS011;30282;16.436;99.370;2023-02-11T04:58:00;47.97;;;40.17;;
12601;SDS011;30282;16.436;99.370;2023-02-11T05:00:29;53.20;;;41.93;;
12601;SDS011;30282;16.436;99.370;2023-02-11T05:02:58;50.57;;;41.60;;
12601;SDS011;30282;16.436;99.370;2023-02-11T05:05:27;49.50;;;40.20;;
12601;SDS011;30282;16.436;99.370;2023-02-11T05:07:56;47.63;;;37.83;;
12601;SDS011;30282;16.436;99.370;2023-02-11T05:10:25;41.73;;;33.80;;
12601;SDS011;30282;16.436;99.370;2023-02-11T05:12:56;50.70;;;35.13;;
12601;SDS011;30282;16.436;99.370;2023-02-11T05:15:25;43.30;;;35.43;;
12601;SDS011;30282;16.436;99.370;2023-02-11T05:17:54;42.47;;;33.20;;
12601;SDS011;30282;16.436;99.370;2023-02-11T05:20:23;43.37;;;37.53;;
12601;SDS011;30282;16.436;99.370;2023-02-11T05:22:52;43.30;;;35.20;;
12601;SDS011;30282;16.436;99.370;2023-02-11T05:25:21;43.50;;;31.07;;
12601;SDS011;30282;16.436;99.370;2023-02-11T05:27:50;36.27;;;25.60;;
12601;SDS011;30282;16.436;99.370;2023-02-11T05:30:21;153.27;;;45.93;;
12601;SDS011;30282;16.436;99.370;2023-02-11T05:32:50;180.17;;;39.20;;
12601;SDS011;30282;16.436;99.370;2023-02-11T05:35:19;37.87;;;27.47;;
12601;SDS011;30282;16.436;99.370;2023-02-11T05:37:48;32.60;;;26.17;;
12601;SDS011;30282;16.436;99.370;2023-02-11T05:40:17;45.67;;;27.70;;
12601;SDS011;30282;16.436;99.370;2023-02-11T05:42:46;43.73;;;26.77;;
12601;SDS011;30282;16.436;99.370;2023-02-11T05:45:15;33.83;;;27.73;;
12601;SDS011;30282;16.436;99.370;2023-02-11T05:47:46;41.03;;;28.73;;
12601;SDS011;30282;16.436;99.370;2023-02-11T05:50:15;34.57;;;26.83;;
12601;SDS011;30282;16.436;99.370;2023-02-11T05:52:44;34.73;;;26.63;;
12601;SDS011;30282;16.436;99.370;2023-02-11T05:55:13;33.50;;;24.10;;
12601;SDS011;30282;16.436;99.370;2023-02-11T05:57:42;30.23;;;22.40;;
12601;SDS011;30282;16.436;99.370;2023-02-11T06:00:11;34.10;;;24.40;;
12601;SDS011;30282;16.436;99.370;2023-02-11T06:02:41;29.47;;;20.77;;
12601;SDS011;30282;16.436;99.370;2023-02-11T06:05:12;21.67;;;19.40;;
12601;SDS011;30282;16.436;99.370;2023-02-11T06:07:41;29.47;;;25.00;;
12601;SDS011;30282;16.436;99.370;2023-02-11T06:10:10;28.90;;;21.87;;
12601;SDS011;30282;16.436;99.370;2023-02-11T06:12:39;26.23;;;21.80;;
12601;SDS011;30282;16.436;99.370;2023-02-11T06:15:09;32.20;;;22.30;;
12601;SDS011;30282;16.436;99.370;2023-02-11T06:17:38;37.63;;;22.20;;
12601;SDS011;30282;16.436;99.370;2023-02-11T06:20:08;31.13;;;21.00;;
12601;SDS011;30282;16.436;99.370;2023-02-11T06:22:39;26.63;;;19.13;;
12601;SDS011;30282;16.436;99.370;2023-02-11T06:25:08;29.93;;;21.30;;
12601;SDS011;30282;16.436;99.370;2023-02-11T06:27:37;40.00;;;21.67;;
12601;SDS011;30282;16.436;99.370;2023-02-11T06:30:09;29.37;;;19.47;;
12601;SDS011;30282;16.436;99.370;2023-02-11T06:32:39;32.27;;;21.30;;
12601;SDS011;30282;16.436;99.370;2023-02-11T06:35:08;27.60;;;20.03;;
12601;SDS011;30282;16.436;99.370;2023-02-11T06:37:40;26.00;;;20.03;;
12601;SDS011;30282;16.436;99.370;2023-02-11T06:40:09;25.23;;;19.17;;
12601;SDS011;30282;16.436;99.370;2023-02-11T06:42:39;32.97;;;20.17;;
12601;SDS011;30282;16.436;99.370;2023-02-11T06:45:08;42.53;;;21.97;;
12601;SDS011;30282;16.436;99.370;2023-02-11T06:47:37;34.73;;;19.50;;
12601;SDS011;30282;16.436;99.370;2023-02-11T06:50:07;34.93;;;21.17;;
12601;SDS011;30282;16.436;99.370;2023-02-11T06:52:40;25.10;;;19.80;;
12601;SDS011;30282;16.436;99.370;2023-02-11T06:55:09;33.97;;;19.50;;
12601;SDS011;30282;16.436;99.370;2023-02-11T06:57:38;21.30;;;19.10;;
12601;SDS011;30282;16.436;99.370;2023-02-11T07:00:07;35.93;;;20.97;;
12601;SDS011;30282;16.436;99.370;2023-02-11T07:02:37;27.20;;;21.00;;
12601;SDS011;30282;16.436;99.370;2023-02-11T07:05:07;31.97;;;20.23;;
12601;SDS011;30282;16.436;99.370;2023-02-11T07:07:38;26.50;;;19.57;;
12601;SDS011;30282;16.436;99.370;2023-02-11T07:10:07;30.57;;;20.07;;
12601;SDS011;30282;16.436;99.370;2023-02-11T07:12:36;24.00;;;20.70;;
12601;SDS011;30282;16.436;99.370;2023-02-11T07:15:06;27.77;;;20.07;;
12601;SDS011;30282;16.436;99.370;2023-02-11T07:17:35;23.47;;;19.37;;
12601;SDS011;30282;16.436;99.370;2023-02-11T07:20:04;33.50;;;20.27;;
12601;SDS011;30282;16.436;99.370;2023-02-11T07:22:34;43.33;;;19.83;;
12601;SDS011;30282;16.436;99.370;2023-02-11T07:25:05;38.77;;;22.80;;
12601;SDS011;30282;16.436;99.370;2023-02-11T07:27:34;36.03;;;19.40;;
12601;SDS011;30282;16.436;99.370;2023-02-11T07:30:03;31.57;;;21.13;;
12601;SDS011;30282;16.436;99.370;2023-02-11T07:32:33;25.90;;;19.40;;
12601;SDS011;30282;16.436;99.370;2023-02-11T07:35:02;28.33;;;19.63;;
12601;SDS011;30282;16.436;99.370;2023-02-11T07:37:32;25.90;;;18.53;;
12601;SDS011;30282;16.436;99.370;2023-02-11T07:40:01;37.70;;;19.70;;
12601;SDS011;30282;16.436;99.370;2023-02-11T07:42:33;26.40;;;21.47;;
12601;SDS011;30282;16.436;99.370;2023-02-11T07:45:02;34.23;;;20.47;;
12601;SDS011;30282;16.436;99.370;2023-02-11T07:47:33;33.53;;;19.90;;
12601;SDS011;30282;16.436;99.370;2023-02-11T07:50:02;29.20;;;19.23;;
12601;SDS011;30282;16.436;99.370;2023-02-11T07:52:32;26.70;;;18.97;;
12601;SDS011;30282;16.436;99.370;2023-02-11T07:55:01;45.40;;;19.70;;
12601;SDS011;30282;16.436;99.370;2023-02-11T07:57:31;22.53;;;18.07;;
12601;SDS011;30282;16.436;99.370;2023-02-11T08:00:00;24.23;;;19.97;;
12601;SDS011;30282;16.436;99.370;2023-02-11T08:02:30;30.10;;;18.77;;
12601;SDS011;30282;16.436;99.370;2023-02-11T08:04:59;26.10;;;19.53;;
12601;SDS011;30282;16.436;99.370;2023-02-11T08:07:28;26.33;;;19.23;;
12601;SDS011;30282;16.436;99.370;2023-02-11T08:09:57;27.57;;;18.70;;
12601;SDS011;30282;16.436;99.370;2023-02-11T08:12:26;24.90;;;19.57;;
12601;SDS011;30282;16.436;99.370;2023-02-11T08:14:56;30.47;;;19.70;;
12601;SDS011;30282;16.436;99.370;2023-02-11T08:17:25;25.90;;;17.63;;
12601;SDS011;30282;16.436;99.370;2023-02-11T08:19:54;23.80;;;17.97;;
12601;SDS011;30282;16.436;99.370;2023-02-11T08:22:23;29.83;;;18.30;;
12601;SDS011;30282;16.436;99.370;2023-02-11T08:24:52;27.37;;;17.07;;
12601;SDS011;30282;16.436;99.370;2023-02-11T08:27:23;33.50;;;18.23;;
12601;SDS011;30282;16.436;99.370;2023-02-11T08:29:52;22.93;;;18.00;;
12601;SDS011;30282;16.436;99.370;2023-02-11T08:32:23;24.63;;;18.43;;
12601;SDS011;30282;16.436;99.370;2023-02-11T08:34:52;26.13;;;18.80;;
12601;SDS011;30282;16.436;99.370;2023-02-11T08:37:21;21.80;;;18.50;;
12601;SDS011;30282;16.436;99.370;2023-02-11T08:39:50;35.33;;;19.10;;
12601;SDS011;30282;16.436;99.370;2023-02-11T08:42:19;34.07;;;17.40;;
12601;SDS011;30282;16.436;99.370;2023-02-11T08:44:48;23.33;;;18.90;;
12601;SDS011;30282;16.436;99.370;2023-02-11T08:47:17;28.73;;;18.60;;
12601;SDS011;30282;16.436;99.370;2023-02-11T08:49:47;31.50;;;18.07;;
12601;SDS011;30282;16.436;99.370;2023-02-11T08:52:16;32.57;;;20.07;;
12601;SDS011;30282;16.436;99.370;2023-02-11T08:54:45;32.00;;;17.77;;
12601;SDS011;30282;16.436;99.370;2023-02-11T08:57:15;23.73;;;18.30;;
12601;SDS011;30282;16.436;99.370;2023-02-11T08:59:44;22.80;;;17.73;;
12601;SDS011;30282;16.436;99.370;2023-02-11T09:02:14;23.10;;;17.10;;
12601;SDS011;30282;16.436;99.370;2023-02-11T09:04:43;26.97;;;17.87;;
12601;SDS011;30282;16.436;99.370;2023-02-11T09:07:15;29.97;;;19.07;;
12601;SDS011;30282;16.436;99.370;2023-02-11T09:09:44;21.60;;;17.23;;
12601;SDS011;30282;16.436;99.370;2023-02-11T09:12:13;23.90;;;17.50;;
12601;SDS011;30282;16.436;99.370;2023-02-11T09:14:42;24.97;;;17.30;;
12601;SDS011;30282;16.436;99.370;2023-02-11T09:17:11;29.77;;;17.60;;
12601;SDS011;30282;16.436;99.370;2023-02-11T09:19:40;29.67;;;18.27;;
12601;SDS011;30282;16.436;99.370;2023-02-11T09:22:09;28.60;;;18.60;;
12601;SDS011;30282;16.436;99.370;2023-02-11T09:24:40;28.57;;;17.73;;
12601;SDS011;30282;16.436;99.370;2023-02-11T09:27:09;28.27;;;17.77;;
12601;SDS011;30282;16.436;99.370;2023-02-11T09:29:38;27.90;;;18.60;;
12601;SDS011;30282;16.436;99.370;2023-02-11T09:32:07;34.93;;;18.60;;
12601;SDS011;30282;16.436;99.370;2023-02-11T09:34:36;25.63;;;17.77;;
12601;SDS011;30282;16.436;99.370;2023-02-11T09:37:05;23.63;;;18.13;;
12601;SDS011;30282;16.436;99.370;2023-02-11T09:39:34;35.70;;;18.00;;
12601;SDS011;30282;16.436;99.370;2023-02-11T09:42:23;29.07;;;17.90;;
12601;SDS011;30282;16.436;99.370;2023-02-11T09:45:12;29.83;;;18.43;;
12601;SDS011;30282;16.436;99.370;2023-02-11T09:47:46;40.50;;;19.00;;
12601;SDS011;30282;16.436;99.370;2023-02-11T09:50:21;25.83;;;17.80;;
12601;SDS011;30282;16.436;99.370;2023-02-11T09:52:53;30.90;;;17.07;;
12601;SDS011;30282;16.436;99.370;2023-02-11T09:55:27;24.07;;;17.53;;
12601;SDS011;30282;16.436;99.370;2023-02-11T09:57:59;34.47;;;17.77;;
12601;SDS011;30282;16.436;99.370;2023-02-11T10:00:32;27.90;;;19.30;;
12601;SDS011;30282;16.436;99.370;2023-02-11T10:03:11;22.33;;;18.53;;
12601;SDS011;30282;16.436;99.370;2023-02-11T10:05:57;31.93;;;19.60;;
12601;SDS011;30282;16.436;99.370;2023-02-11T10:08:38;48.73;;;19.43;;
12601;SDS011;30282;16.436;99.370;2023-02-11T10:11:15;34.70;;;19.03;;
12601;SDS011;30282;16.436;99.370;2023-02-11T10:13:55;25.93;;;18.07;;
12601;SDS011;30282;16.436;99.370;2023-02-11T10:16:35;30.63;;;17.57;;
12601;SDS011;30282;16.436;99.370;2023-02-11T10:19:18;59.30;;;18.70;;
12601;SDS011;30282;16.436;99.370;2023-02-11T10:22:04;29.17;;;19.33;;
12601;SDS011;30282;16.436;99.370;2023-02-11T10:24:37;29.67;;;19.30;;
12601;SDS011;30282;16.436;99.370;2023-02-11T10:27:11;31.97;;;17.90;;
12601;SDS011;30282;16.436;99.370;2023-02-11T10:29:47;36.37;;;18.17;;
12601;SDS011;30282;16.436;99.370;2023-02-11T10:32:30;30.47;;;19.13;;
12601;SDS011;30282;16.436;99.370;2023-02-11T10:35:03;27.17;;;20.23;;
12601;SDS011;30282;16.436;99.370;2023-02-11T10:37:40;32.80;;;19.43;;
12601;SDS011;30282;16.436;99.370;2023-02-11T10:40:11;36.67;;;21.00;;
12601;SDS011;30282;16.436;99.370;2023-02-11T10:42:42;46.70;;;22.20;;
12601;SDS011;30282;16.436;99.370;2023-02-11T10:45:17;32.97;;;22.70;;
12601;SDS011;30282;16.436;99.370;2023-02-11T10:47:50;29.67;;;22.07;;
12601;SDS011;30282;16.436;99.370;2023-02-11T10:50:21;35.33;;;23.90;;
12601;SDS011;30282;16.436;99.370;2023-02-11T10:52:51;51.83;;;26.80;;
12601;SDS011;30282;16.436;99.370;2023-02-11T10:55:37;49.40;;;26.30;;
12601;SDS011;30282;16.436;99.370;2023-02-11T10:58:20;37.90;;;26.70;;
12601;SDS011;30282;16.436;99.370;2023-02-11T11:00:54;37.57;;;28.13;;
12601;SDS011;30282;16.436;99.370;2023-02-11T11:03:25;38.60;;;26.70;;
12601;SDS011;30282;16.436;99.370;2023-02-11T11:05:59;34.90;;;25.97;;
12601;SDS011;30282;16.436;99.370;2023-02-11T11:08:39;44.47;;;26.10;;
12601;SDS011;30282;16.436;99.370;2023-02-11T11:11:09;36.33;;;26.37;;
12601;SDS011;30282;16.436;99.370;2023-02-11T11:13:40;40.30;;;26.37;;
12601;SDS011;30282;16.436;99.370;2023-02-11T11:16:25;41.80;;;26.57;;
12601;SDS011;30282;16.436;99.370;2023-02-11T11:19:13;40.53;;;25.90;;
12601;SDS011;30282;16.436;99.370;2023-02-11T11:21:47;36.87;;;24.90;;
12601;SDS011;30282;16.436;99.370;2023-02-11T11:24:19;31.03;;;23.70;;
12601;SDS011;30282;16.436;99.370;2023-02-11T11:26:52;58.53;;;26.20;;
12601;SDS011;30282;16.436;99.370;2023-02-11T11:29:25;46.87;;;28.60;;
12601;SDS011;30282;16.436;99.370;2023-02-11T11:32:01;50.77;;;26.40;;
12601;SDS011;30282;16.436;99.370;2023-02-11T11:34:33;41.10;;;27.43;;
12601;SDS011;30282;16.436;99.370;2023-02-11T11:37:09;57.87;;;40.27;;
12601;SDS011;30282;16.436;99.370;2023-02-11T11:39:39;72.53;;;49.87;;
12601;SDS011;30282;16.436;99.370;2023-02-11T11:42:21;89.80;;;61.93;;
12601;SDS011;30282;16.436;99.370;2023-02-11T11:44:56;61.80;;;41.30;;
12601;SDS011;30282;16.436;99.370;2023-02-11T11:47:36;55.10;;;36.60;;
12601;SDS011;30282;16.436;99.370;2023-02-11T11:50:21;56.03;;;34.93;;
12601;SDS011;30282;16.436;99.370;2023-02-11T11:52:55;65.63;;;39.83;;
12601;SDS011;30282;16.436;99.370;2023-02-11T11:55:30;66.80;;;37.47;;
12601;SDS011;30282;16.436;99.370;2023-02-11T11:58:05;50.77;;;36.83;;
12601;SDS011;30282;16.436;99.370;2023-02-11T12:00:44;50.30;;;39.03;;
12601;SDS011;30282;16.436;99.370;2023-02-11T12:03:33;56.57;;;38.53;;
12601;SDS011;30282;16.436;99.370;2023-02-11T12:06:23;55.73;;;35.83;;
12601;SDS011;30282;16.436;99.370;2023-02-11T12:09:04;51.73;;;35.80;;
12601;SDS011;30282;16.436;99.370;2023-02-11T12:11:50;41.87;;;31.03;;
12601;SDS011;30282;16.436;99.370;2023-02-11T12:14:31;47.60;;;32.93;;
12601;SDS011;30282;16.436;99.370;2023-02-11T12:17:11;50.33;;;34.80;;
12601;SDS011;30282;16.436;99.370;2023-02-11T12:20:03;56.07;;;35.20;;
12601;SDS011;30282;16.436;99.370;2023-02-11T12:22:49;50.00;;;35.57;;
12601;SDS011;30282;16.436;99.370;2023-02-11T12:25:30;57.40;;;35.60;;
12601;SDS011;30282;16.436;99.370;2023-02-11T12:28:09;58.47;;;34.67;;
12601;SDS011;30282;16.436;99.370;2023-02-11T12:30:53;50.43;;;33.50;;
12601;SDS011;30282;16.436;99.370;2023-02-11T12:33:37;53.50;;;36.33;;
12601;SDS011;30282;16.436;99.370;2023-02-11T12:36:36;56.40;;;34.37;;
12601;SDS011;30282;16.436;99.370;2023-02-11T12:39:23;56.23;;;35.10;;
12601;SDS011;30282;16.436;99.370;2023-02-11T12:45:11;58.70;;;36.47;;
12601;SDS011;30282;16.436;99.370;2023-02-11T12:47:55;60.07;;;33.63;;
12601;SDS011;30282;16.436;99.370;2023-02-11T12:50:37;57.90;;;35.00;;
12601;SDS011;30282;16.436;99.370;2023-02-11T12:53:28;50.17;;;33.80;;
12601;SDS011;30282;16.436;99.370;2023-02-11T12:56:11;47.60;;;32.57;;
12601;SDS011;30282;16.436;99.370;2023-02-11T12:58:46;48.90;;;30.07;;
12601;SDS011;30282;16.436;99.370;2023-02-11T13:01:19;50.73;;;33.40;;
12601;SDS011;30282;16.436;99.370;2023-02-11T13:03:53;50.30;;;30.20;;
12601;SDS011;30282;16.436;99.370;2023-02-11T13:06:27;44.37;;;28.67;;
12601;SDS011;30282;16.436;99.370;2023-02-11T13:09:03;41.63;;;28.07;;
12601;SDS011;30282;16.436;99.370;2023-02-11T13:11:39;50.23;;;29.90;;
12601;SDS011;30282;16.436;99.370;2023-02-11T13:14:18;46.50;;;33.97;;
12601;SDS011;30282;16.436;99.370;2023-02-11T13:16:52;47.97;;;30.20;;
12601;SDS011;30282;16.436;99.370;2023-02-11T13:19:24;53.30;;;36.37;;
12601;SDS011;30282;16.436;99.370;2023-02-11T13:22:02;53.27;;;36.33;;
12601;SDS011;30282;16.436;99.370;2023-02-11T13:24:40;51.67;;;34.10;;
12601;SDS011;30282;16.436;99.370;2023-02-11T13:27:16;46.13;;;31.03;;
12601;SDS011;30282;16.436;99.370;2023-02-11T13:33:02;39.47;;;29.83;;
12601;SDS011;30282;16.436;99.370;2023-02-11T13:35:33;38.63;;;28.20;;
12601;SDS011;30282;16.436;99.370;2023-02-11T13:38:03;40.47;;;28.37;;
12601;SDS011;30282;16.436;99.370;2023-02-11T13:40:45;44.90;;;32.80;;
12601;SDS011;30282;16.436;99.370;2023-02-11T13:43:27;43.50;;;31.90;;
12601;SDS011;30282;16.436;99.370;2023-02-11T13:45:58;55.83;;;32.97;;
12601;SDS011;30282;16.436;99.370;2023-02-11T13:48:29;46.03;;;29.40;;
12601;SDS011;30282;16.436;99.370;2023-02-11T13:50:59;41.47;;;28.20;;
12601;SDS011;30282;16.436;99.370;2023-02-11T13:53:30;36.80;;;28.97;;
12601;SDS011;30282;16.436;99.370;2023-02-11T13:56:23;35.90;;;27.07;;
12601;SDS011;30282;16.436;99.370;2023-02-11T13:58:57;35.70;;;26.60;;
12601;SDS011;30282;16.436;99.370;2023-02-11T14:01:40;41.77;;;25.87;;
12601;SDS011;30282;16.436;99.370;2023-02-11T14:08:18;44.23;;;24.73;;
12601;SDS011;30282;16.436;99.370;2023-02-11T14:11:09;31.37;;;23.97;;
12601;SDS011;30282;16.436;99.370;2023-02-11T14:19:47;25.90;;;19.53;;
12601;SDS011;30282;16.436;99.370;2023-02-11T14:22:18;31.07;;;20.67;;
12601;SDS011;30282;16.436;99.370;2023-02-11T14:24:51;24.23;;;18.80;;
12601;SDS011;30282;16.436;99.370;2023-02-11T14:27:26;23.53;;;18.03;;
12601;SDS011;30282;16.436;99.370;2023-02-11T14:33:19;27.33;;;18.20;;
12601;SDS011;30282;16.436;99.370;2023-02-11T14:36:12;21.60;;;16.63;;
12601;SDS011;30282;16.436;99.370;2023-02-11T14:39:13;29.10;;;17.53;;
12601;SDS011;30282;16.436;99.370;2023-02-11T14:41:52;27.80;;;18.47;;
12601;SDS011;30282;16.436;99.370;2023-02-11T14:44:22;23.70;;;18.47;;
12601;SDS011;30282;16.436;99.370;2023-02-11T14:46:55;33.40;;;18.47;;
12601;SDS011;30282;16.436;99.370;2023-02-11T14:49:26;24.20;;;18.57;;
12601;SDS011;30282;16.436;99.370;2023-02-11T14:51:59;25.83;;;20.37;;
12601;SDS011;30282;16.436;99.370;2023-02-11T14:54:32;42.30;;;25.60;;
12601;SDS011;30282;16.436;99.370;2023-02-11T14:57:07;28.13;;;23.70;;
12601;SDS011;30282;16.436;99.370;2023-02-11T14:59:39;41.27;;;25.90;;
12601;SDS011;30282;16.436;99.370;2023-02-11T15:02:27;30.87;;;24.00;;
12601;SDS011;30282;16.436;99.370;2023-02-11T15:05:17;29.90;;;24.27;;
12601;SDS011;30282;16.436;99.370;2023-02-11T15:07:51;34.63;;;25.50;;